Pagrindinis puslapis
METAR-TAF:

METAR-TAF

Oro uostai :

Bolonija, Italija

platuma: 44-32N, ilguma: 011-18E, Aukštis: 36 m

Dabartinis oras

Ataskaita buvo paskelbta 44 minutes, ne 18:50 UTC
Vėjas 1 kt nuo kintamojo kryptimis
Temperatūra 16°C
Drėgmė 100%
Slėgis 1021 hPa
Matomumas: 8000 m
Mažai debesys ne aukštis 4500 ft

METAR: LIPE 191850Z VRB01KT 8000 FEW045 16/16 Q1021

Laikas: 21:34 (19:34 UTC)

Prognozė

Ataskaita buvo paskelbta 2 valandos ir 34 minutes, ne 17:00 UTC
Prognozė galioja nuo 19 metu 18 UTC su 20 metu 18 UTC
Vėjas 5 kt nuo kintamojo kryptimis
Matomumas: 8000 m
Išsisklaidę debesys ne aukštis 1500 ft
Tapsmas
nuo 20 metu 06 UTC su 20 metu 08 UTC
Vėjas 10 kt iš Rytų
Tapsmas
nuo 20 metu 16 UTC su 20 metu 18 UTC
Vėjas 5 kt nuo kintamojo kryptimis

TAF: LIPE 191700Z 1918/2018 VRB05KT 8000 SCT015 BECMG 2006/2008 08010KT BECMG 2016/2018 VRB05KT

Orai ataskaitas ir orų prognozės (METAR, TAF).

turimą stotys yra geltonos ir raudonos taškus žemėlapyje.

Perkelti pele per norėdami pamatyti stoties vardą.

Tada spustelėkite, norėdami matyti oro stebėjimo ir prognozės.

Norėdami pakeisti žemėlapį: spustelėkite ant žalios mygtukų su juodo kryžiaus žemyn,; žalią mygtuką su brūkšneliu, jei norite nutolinti; arba žalių rodyklių gretimoms žemėlapius.


METAR-TAF: